Time;durP1;ratioP1;P1;durP2;ratioP2;P2;SDS_P1;SDS_P2;PMS_P1;PMS_P2;Temp;Humidity;BMP_temperature;BMP_pressure;BME280_temperature;BME280_humidity;BME280_pressure;Samples;Min_cycle;Max_cycle;Signal;HPM_P1;HPM_P2
2021/12/10 00:01:34;;;;;;;;;;;;;;;6.53;60.48;98786.09;4441107;32;20032;-85
2021/12/10 00:04:01;;;;;;;;;;;;;;;6.62;60.54;98787.09;4406162;32;792019;-88
2021/12/10 00:06:33;;;;;;;;;;;;;;;6.67;60.18;98788.91;4423274;32;19982;-86
2021/12/10 00:09:03;;;;;;;;;;;;;;;6.52;60.57;98789.53;4435901;32;20039;-85
2021/12/10 00:11:33;;;;;;;;;;;;;;;6.81;59.81;98781.37;4446358;32;20048;-91
2021/12/10 00:14:00;;;;;;;;;;;;;;;6.86;59.32;98779.75;4430671;32;19997;-88
2021/12/10 00:16:27;;;;;;;;;;;;;;;6.71;60.06;98774.37;4462337;32;19997;-91
2021/12/10 00:19:07;;;;;;;;;;;;;;;6.80;59.53;98768.50;4461971;32;19993;-88
2021/12/10 00:21:34;;;;;;;;;;;;;;;6.60;59.94;98773.34;4444558;32;19976;-89
2021/12/10 00:24:02;;;;;;;;;;;;;;;6.49;60.22;98781.78;4453443;32;20535;-87
2021/12/10 00:26:29;;;;;;;;;;;;;;;6.59;59.88;98794.75;4443958;32;20047;-88
2021/12/10 00:29:02;;;;;;;;;;;;;;;6.69;59.51;98796.63;4446366;32;19989;-87
2021/12/10 00:31:43;;;;;;;;;;;;;;;6.73;59.67;98798.38;4460145;32;20330;-88
2021/12/10 00:34:12;;;;;;;;;;;;;;;6.58;59.96;98804.19;4436457;32;20009;-86
2021/12/10 00:36:39;;;;;;;;;;;;;;;6.82;59.16;98798.53;4444933;32;19989;-90
2021/12/10 00:39:07;;;;;;;;;;;;;;;6.74;59.40;98810.44;4447613;32;19984;-90
2021/12/10 00:41:35;;;;;;;;;;;;;;;6.62;59.79;98805.09;4445984;32;20420;-84
2021/12/10 00:44:02;;;;;;;;;;;;;;;6.67;59.62;98804.34;4429213;32;19977;-88
2021/12/10 00:46:29;;;;;;;;;;;;;;;6.55;60.09;98813.56;4434872;32;19993;-83
2021/12/10 00:48:56;;;;;;;;;;;;;;;6.66;59.72;98812.00;4451818;32;19993;-85
2021/12/10 00:51:23;;;;;;;;;;;;;;;6.64;60.00;98808.56;4462090;32;19976;-88
2021/12/10 00:53:52;;;;;;;;;;;;;;;6.76;59.67;98801.00;4446560;32;20270;-84
2021/12/10 00:56:18;;;;;;;;;;;;;;;6.77;59.63;98805.34;4445755;32;19999;-86
2021/12/10 00:58:45;;;;;;;;;;;;;;;6.74;59.91;98810.44;4435126;32;19985;-85
2021/12/10 01:01:14;;;;;;;;;;;;;;;6.86;59.48;98805.47;4429512;32;19977;-85
2021/12/10 01:03:45;;;;;;;;;;;;;;;6.73;60.06;98804.44;4446726;32;20060;-84
2021/12/10 01:06:13;;;;;;;;;;;;;;;6.84;59.31;98802.00;4460993;32;20377;-82
2021/12/10 01:08:42;;;;;;;;;;;;;;;6.95;59.36;98805.56;4456133;32;19985;-87
2021/12/10 01:11:12;;;;;;;;;;;;;;;6.99;59.16;98794.50;4446270;32;19977;-83
2021/12/10 01:13:41;;;;;;;;;;;;;;;6.96;59.53;98797.03;4445375;32;20312;-87
2021/12/10 01:24:17;;;;;;;;;;;;;;;6.81;59.94;98791.66;4452462;32;20029;-88
2021/12/10 01:29:14;;;;;;;;;;;;;;;6.98;59.41;98790.16;4423313;32;20029;-89
2021/12/10 01:31:41;;;;;;;;;;;;;;;6.56;60.17;98799.84;4430525;32;20036;-91
2021/12/10 01:34:09;;;;;;;;;;;;;;;6.49;60.33;98799.75;4425850;32;20001;-89
2021/12/10 01:36:36;;;;;;;;;;;;;;;6.17;61.67;98806.09;4409642;32;20369;-89
2021/12/10 01:39:05;;;;;;;;;;;;;;;6.37;60.97;98809.84;4415061;32;19982;-89
2021/12/10 01:41:36;;;;;;;;;;;;;;;6.25;61.12;98817.34;4414538;32;19974;-88
2021/12/10 01:44:11;;;;;;;;;;;;;;;6.51;60.60;98821.22;4414820;32;20043;-84
2021/12/10 01:46:40;;;;;;;;;;;;;;;6.61;60.09;98817.09;4418164;32;19993;-80
2021/12/10 01:49:07;;;;;;;;;;;;;;;6.63;60.17;98811.97;4418542;32;19982;-83
2021/12/10 01:51:35;;;;;;;;;;;;;;;6.52;60.40;98807.53;4426699;32;19996;-84
2021/12/10 01:54:12;;;;;;;;;;;;;;;6.35;60.66;98810.66;4445792;32;19973;-85
2021/12/10 01:56:40;;;;;;;;;;;;;;;6.34;60.26;98809.78;4442061;32;20385;-83
2021/12/10 01:59:08;;;;;;;;;;;;;;;6.38;60.42;98811.59;4437497;32;19981;-87
2021/12/10 02:01:38;;;;;;;;;;;;;;;6.50;59.98;98806.63;4424157;32;19973;-85
2021/12/10 02:04:05;;;;;;;;;;;;;;;6.67;59.75;98806.91;4419465;32;19966;-89
2021/12/10 02:06:32;;;;;;;;;;;;;;;6.37;60.27;98804.72;4436157;32;19989;-87
2021/12/10 02:08:59;;;;;;;;;;;;;;;6.27;60.58;98807.97;4447264;32;20330;-88
2021/12/10 02:11:26;;;;;;;;;;;;;;;6.47;60.25;98806.56;4447220;32;20393;-85
2021/12/10 02:13:52;;;;;;;;;;;;;;;6.38;60.30;98811.59;4433130;32;19986;-84
2021/12/10 02:16:19;;;;;;;;;;;;;;;6.29;60.70;98816.59;4432191;32;20356;-84
2021/12/10 02:18:48;;;;;;;;;;;;;;;5.97;61.19;98809.19;4436796;32;19997;-87
2021/12/10 02:21:16;;;;;;;;;;;;;;;6.19;60.88;98804.41;4432221;32;20003;-86
2021/12/10 02:23:45;;;;;;;;;;;;;;;6.31;60.63;98807.19;4431904;32;20036;-87
2021/12/10 02:26:13;;;;;;;;;;;;;;;6.34;59.85;98807.22;4428102;32;20000;-86
2021/12/10 02:28:40;;;;;;;;;;;;;;;6.16;60.83;98810.38;4445784;32;20027;-84
2021/12/10 02:31:08;;;;;;;;;;;;;;;6.31;60.38;98814.88;4431287;32;19985;-86
2021/12/10 02:33:35;;;;;;;;;;;;;;;6.29;60.44;98821.72;4443567;32;20269;-88
2021/12/10 02:36:02;;;;;;;;;;;;;;;6.26;60.27;98821.66;4427211;32;20760;-87
2021/12/10 02:38:29;;;;;;;;;;;;;;;5.97;60.79;98822.03;4416808;32;19985;-87
2021/12/10 02:40:56;;;;;;;;;;;;;;;6.20;60.50;98819.00;4431792;32;20008;-85
2021/12/10 02:43:23;;;;;;;;;;;;;;;6.36;60.00;98823.53;4419082;32;19989;-89
2021/12/10 02:45:55;;;;;;;;;;;;;;;6.32;60.35;98820.88;4420396;32;20052;-82
2021/12/10 02:48:23;;;;;;;;;;;;;;;6.60;59.27;98822.19;4434497;32;19992;-87
2021/12/10 02:50:50;;;;;;;;;;;;;;;5.92;60.98;98818.47;4417571;32;20747;-85
2021/12/10 02:53:23;;;;;;;;;;;;;;;6.31;60.00;98817.44;4431247;32;20016;-91
2021/12/10 02:55:50;;;;;;;;;;;;;;;5.89;61.11;98815.84;4437544;32;20003;-87
2021/12/10 02:58:16;;;;;;;;;;;;;;;5.71;61.09;98811.25;4430831;32;20019;-86
2021/12/10 03:00:47;;;;;;;;;;;;;;;6.25;59.55;98809.63;4431903;32;19985;-87
2021/12/10 03:03:14;;;;;;;;;;;;;;;6.35;59.39;98801.28;4418217;32;19986;-82
2021/12/10 03:05:41;;;;;;;;;;;;;;;5.81;60.97;98796.87;4438547;32;20279;-90
2021/12/10 03:08:07;;;;;;;;;;;;;;;5.86;60.24;98808.09;4431448;32;19985;-85
2021/12/10 03:10:35;;;;;;;;;;;;;;;5.33;61.84;98807.94;4431684;32;19992;-86
2021/12/10 03:13:03;;;;;;;;;;;;;;;5.49;61.58;98809.97;4429660;32;20364;-86
2021/12/10 03:15:30;;;;;;;;;;;;;;;5.79;60.64;98808.81;4437149;32;19973;-89
2021/12/10 03:17:58;;;;;;;;;;;;;;;5.73;60.97;98806.13;4434548;32;19996;-86
2021/12/10 03:20:25;;;;;;;;;;;;;;;5.75;60.81;98801.91;4426760;32;19981;-83
2021/12/10 03:22:52;;;;;;;;;;;;;;;5.71;60.79;98792.38;4435594;32;20358;-87
2021/12/10 03:25:19;;;;;;;;;;;;;;;5.43;61.35;98789.31;4429643;32;20115;-87
2021/12/10 03:27:46;;;;;;;;;;;;;;;5.75;60.48;98807.03;4425479;32;20027;-86
2021/12/10 03:30:15;;;;;;;;;;;;;;;5.80;60.14;98805.41;4430206;32;20303;-86
2021/12/10 03:32:42;;;;;;;;;;;;;;;5.73;60.14;98813.84;4429021;32;19989;-87
2021/12/10 03:35:13;;;;;;;;;;;;;;;5.57;60.65;98808.41;4433672;32;19982;-82
2021/12/10 03:37:41;;;;;;;;;;;;;;;5.49;61.13;98809.97;4430474;32;20042;-89
2021/12/10 03:40:08;;;;;;;;;;;;;;;5.72;60.27;98817.25;4434513;32;20327;-87
2021/12/10 03:42:35;;;;;;;;;;;;;;;5.42;61.34;98820.94;4427784;32;19982;-94
2021/12/10 03:45:03;;;;;;;;;;;;;;;5.35;61.51;98825.06;4434752;32;20331;-86
2021/12/10 03:47:30;;;;;;;;;;;;;;;5.55;60.54;98820.37;4433838;32;20409;-91
2021/12/10 03:49:57;;;;;;;;;;;;;;;5.18;61.82;98823.88;4434729;32;19986;-89
2021/12/10 03:52:23;;;;;;;;;;;;;;;5.11;61.93;98822.88;4436198;32;19980;-90
2021/12/10 03:54:50;;;;;;;;;;;;;;;5.33;61.62;98823.34;4431297;32;20011;-84
2021/12/10 03:57:18;;;;;;;;;;;;;;;5.15;61.77;98822.94;4431551;32;19990;-88
2021/12/10 03:59:44;;;;;;;;;;;;;;;5.30;61.51;98833.53;4429222;32;20831;-89
2021/12/10 04:02:11;;;;;;;;;;;;;;;5.65;60.51;98830.78;4438126;32;20362;-88
2021/12/10 04:04:45;;;;;;;;;;;;;;;5.66;60.62;98827.41;4430665;32;20354;-86
2021/12/10 04:07:23;;;;;;;;;;;;;;;5.92;59.75;98831.31;4419323;32;20338;-81
2021/12/10 04:09:50;;;;;;;;;;;;;;;6.02;59.80;98822.97;4414192;32;20337;-81
2021/12/10 04:12:17;;;;;;;;;;;;;;;5.95;60.04;98828.84;4437890;32;20323;-82
2021/12/10 04:14:45;;;;;;;;;;;;;;;6.01;59.78;98835.78;4427991;32;20462;-84
2021/12/10 04:17:12;;;;;;;;;;;;;;;6.01;59.98;98836.66;4415777;32;19989;-86
2021/12/10 04:19:40;;;;;;;;;;;;;;;6.16;59.23;98830.94;4429825;32;19987;-85
2021/12/10 04:22:07;;;;;;;;;;;;;;;6.12;59.33;98838.53;4431622;32;20004;-87
2021/12/10 04:24:35;;;;;;;;;;;;;;;5.67;60.39;98844.53;4430504;32;20298;-85
2021/12/10 04:27:03;;;;;;;;;;;;;;;5.51;60.88;98851.91;4436328;32;20025;-85
2021/12/10 04:29:30;;;;;;;;;;;;;;;5.33;61.41;98854.12;4422500;32;20327;-83
2021/12/10 04:31:57;;;;;;;;;;;;;;;5.57;60.52;98854.59;4436398;32;20008;-84
2021/12/10 04:34:24;;;;;;;;;;;;;;;5.52;60.81;98851.09;4429314;32;19974;-83
2021/12/10 04:36:52;;;;;;;;;;;;;;;5.74;59.94;98851.50;4432105;32;19999;-82
2021/12/10 04:39:19;;;;;;;;;;;;;;;6.09;58.94;98859.03;4435195;32;19988;-83
2021/12/10 04:41:46;;;;;;;;;;;;;;;6.10;58.94;98865.94;4429447;32;20057;-87
2021/12/10 04:44:13;;;;;;;;;;;;;;;6.10;58.85;98876.19;4422515;32;19997;-90
2021/12/10 04:46:39;;;;;;;;;;;;;;;5.96;59.41;98866.50;4434198;32;20372;-87
2021/12/10 04:49:12;;;;;;;;;;;;;;;6.31;58.34;98870.56;4440211;32;19981;-86
2021/12/10 04:51:40;;;;;;;;;;;;;;;6.32;58.26;98868.03;4440487;32;20310;-84
2021/12/10 04:54:08;;;;;;;;;;;;;;;6.13;58.83;98869.41;4441408;32;19997;-85
2021/12/10 04:56:34;;;;;;;;;;;;;;;6.25;58.80;98873.87;4438592;32;19978;-85
2021/12/10 04:59:02;;;;;;;;;;;;;;;6.22;58.73;98884.09;4436598;32;20311;-81
2021/12/10 05:01:31;;;;;;;;;;;;;;;5.89;59.14;98892.88;4429331;32;20357;-82
2021/12/10 05:03:58;;;;;;;;;;;;;;;6.22;58.21;98902.09;4395220;32;20004;-82
2021/12/10 05:06:25;;;;;;;;;;;;;;;5.87;59.48;98912.56;4446989;32;20007;-84
2021/12/10 05:08:52;;;;;;;;;;;;;;;6.03;59.08;98901.78;4446180;32;19978;-84
2021/12/10 05:11:19;;;;;;;;;;;;;;;5.92;59.41;98908.38;4445667;32;20878;-85
2021/12/10 05:13:46;;;;;;;;;;;;;;;6.26;58.68;98893.63;4454345;32;20030;-87
2021/12/10 05:16:14;;;;;;;;;;;;;;;6.29;58.80;98888.53;4448296;32;20043;-86
2021/12/10 05:18:44;;;;;;;;;;;;;;;6.30;58.55;98900.53;4446571;32;19973;-85
2021/12/10 05:21:11;;;;;;;;;;;;;;;6.24;58.63;98890.16;4433522;32;20368;-86
2021/12/10 05:23:38;;;;;;;;;;;;;;;6.42;57.95;98899.91;4447682;32;20382;-85
2021/12/10 05:26:06;;;;;;;;;;;;;;;6.57;58.07;98904.41;4446782;32;20487;-79
2021/12/10 05:28:33;;;;;;;;;;;;;;;6.51;58.20;98898.34;4436626;32;20007;-86
2021/12/10 05:31:00;;;;;;;;;;;;;;;6.39;58.40;98895.56;4445951;32;19977;-87
2021/12/10 05:33:28;;;;;;;;;;;;;;;6.40;58.30;98893.84;4449398;32;19993;-82
2021/12/10 05:35:57;;;;;;;;;;;;;;;6.38;58.88;98899.00;4417856;32;19999;-86
2021/12/10 05:38:24;;;;;;;;;;;;;;;6.38;58.71;98893.84;4432435;32;19989;-86
2021/12/10 05:40:51;;;;;;;;;;;;;;;6.35;58.18;98914.34;4430847;32;20474;-86
2021/12/10 05:43:18;;;;;;;;;;;;;;;6.40;58.44;98907.56;4449451;32;20053;-86
2021/12/10 05:45:45;;;;;;;;;;;;;;;6.53;58.20;98899.22;4446715;32;19993;-86
2021/12/10 05:48:12;;;;;;;;;;;;;;;6.57;58.31;98894.13;4449531;32;19980;-84
2021/12/10 05:50:39;;;;;;;;;;;;;;;6.42;58.98;98898.19;4447184;32;19981;-89
2021/12/10 05:53:06;;;;;;;;;;;;;;;6.43;58.92;98892.19;4445491;32;20014;-90
2021/12/10 05:55:34;;;;;;;;;;;;;;;6.57;58.30;98899.28;4451104;32;19985;-85
2021/12/10 05:58:00;;;;;;;;;;;;;;;6.74;57.53;98890.16;4427728;32;19970;-77
2021/12/10 06:00:29;;;;;;;;;;;;;;;6.73;57.69;98896.13;4431958;32;19990;-84
2021/12/10 06:02:56;;;;;;;;;;;;;;;6.57;58.61;98896.72;4416140;32;20024;-79
2021/12/10 06:05:23;;;;;;;;;;;;;;;6.86;57.73;98882.63;4424546;32;19989;-86
2021/12/10 06:07:50;;;;;;;;;;;;;;;6.69;58.53;98884.06;4447491;32;20043;-79
2021/12/10 06:10:17;;;;;;;;;;;;;;;6.56;59.04;98872.72;4425936;32;19996;-88
2021/12/10 06:12:44;;;;;;;;;;;;;;;6.51;59.50;98875.22;4437349;32;20043;-80
2021/12/10 06:15:12;;;;;;;;;;;;;;;6.58;59.21;98870.19;4416014;32;19985;-79
2021/12/10 06:17:39;;;;;;;;;;;;;;;6.61;59.07;98870.22;4438998;32;20026;-84
2021/12/10 06:20:07;;;;;;;;;;;;;;;6.52;59.15;98871.78;4431909;32;19977;-81
2021/12/10 06:22:33;;;;;;;;;;;;;;;6.64;58.89;98862.56;4428707;32;20005;-79
2021/12/10 06:25:00;;;;;;;;;;;;;;;6.68;58.40;98866.91;4431090;32;19969;-79
2021/12/10 06:27:29;;;;;;;;;;;;;;;6.57;58.80;98864.16;4431842;32;20023;-80
2021/12/10 06:29:57;;;;;;;;;;;;;;;6.77;58.28;98864.47;4435190;32;20010;-84
2021/12/10 06:32:26;;;;;;;;;;;;;;;6.63;58.64;98858.25;4421122;32;19993;-80
2021/12/10 06:34:53;;;;;;;;;;;;;;;6.51;59.54;98853.78;4433740;32;19989;-79
2021/12/10 06:37:20;;;;;;;;;;;;;;;6.75;58.40;98853.28;4437788;32;19970;-79
2021/12/10 06:39:47;;;;;;;;;;;;;;;6.78;58.27;98852.47;4433669;32;20012;-84
2021/12/10 06:42:14;;;;;;;;;;;;;;;6.69;58.34;98853.19;4427157;32;21039;-77
2021/12/10 06:45:01;;;;;;;;;;;;;;;6.71;58.57;98864.38;4425912;32;20004;-82
2021/12/10 06:47:28;;;;;;;;;;;;;;;6.88;57.58;98864.63;4418701;32;20052;-77
2021/12/10 06:49:55;;;;;;;;;;;;;;;6.76;58.39;98860.16;4426016;32;19985;-80
2021/12/10 06:52:22;;;;;;;;;;;;;;;6.75;58.31;98858.44;4424274;32;19982;-80
2021/12/10 06:54:49;;;;;;;;;;;;;;;6.84;58.17;98863.72;4421974;32;19994;-79
2021/12/10 06:57:15;;;;;;;;;;;;;;;6.85;58.54;98872.31;4418127;32;19990;-77
2021/12/10 06:59:42;;;;;;;;;;;;;;;6.74;58.75;98878.16;4420438;32;19986;-80
2021/12/10 07:02:11;;;;;;;;;;;;;;;6.59;58.57;98882.19;4426103;32;20338;-80
2021/12/10 07:04:41;;;;;;;;;;;;;;;6.63;58.51;98873.66;4431000;32;19986;-78
2021/12/10 07:07:13;;;;;;;;;;;;;;;6.83;58.16;98882.59;4406951;32;20809;-79
2021/12/10 07:09:40;;;;;;;;;;;;;;;6.67;59.08;98876.34;4428657;32;20008;-79
2021/12/10 07:12:10;;;;;;;;;;;;;;;6.91;58.53;98880.97;4413756;32;20011;-80
2021/12/10 07:14:43;;;;;;;;;;;;;;;6.97;58.27;98875.94;4417889;32;19981;-79
2021/12/10 07:17:11;;;;;;;;;;;;;;;6.91;58.64;98874.97;4440290;32;20107;-79
2021/12/10 07:19:40;;;;;;;;;;;;;;;6.91;58.23;98880.97;4412569;32;20017;-79
2021/12/10 07:22:07;;;;;;;;;;;;;;;6.98;58.03;98862.22;4408296;32;19989;-80
2021/12/10 07:24:34;;;;;;;;;;;;;;;6.99;58.36;98858.81;4430107;32;19986;-80
2021/12/10 07:27:01;;;;;;;;;;;;;;;6.98;58.61;98862.22;4427462;32;20027;-80
2021/12/10 07:29:28;;;;;;;;;;;;;;;7.04;57.97;98863.16;4425833;32;19994;-76
2021/12/10 07:31:55;;;;;;;;;;;;;;;6.99;58.38;98863.97;4413242;32;20007;-78
2021/12/10 07:34:22;;;;;;;;;;;;;;;7.04;58.37;98861.44;4426338;32;19985;-80
2021/12/10 07:36:48;;;;;;;;;;;;;;;6.99;58.23;98853.66;4426475;32;20331;-80
2021/12/10 07:39:15;;;;;;;;;;;;;;;7.12;57.94;98838.41;4410611;32;20320;-81
2021/12/10 07:41:42;;;;;;;;;;;;;;;7.15;57.87;98841.87;4431718;32;20011;-79
2021/12/10 07:44:10;;;;;;;;;;;;;;;7.03;58.30;98839.12;4427725;32;20022;-77
2021/12/10 07:46:37;;;;;;;;;;;;;;;7.16;57.56;98840.16;4423408;32;20004;-77
2021/12/10 07:49:13;;;;;;;;;;;;;;;7.03;57.88;98846.84;4424412;32;19981;-80
2021/12/10 07:51:40;;;;;;;;;;;;;;;7.05;57.81;98836.56;4428052;32;19997;-80
2021/12/10 07:54:09;;;;;;;;;;;;;;;7.16;57.59;98824.72;4425747;32;19994;-77
2021/12/10 07:56:36;;;;;;;;;;;;;;;7.19;57.48;98819.63;4426017;32;20024;-83
2021/12/10 07:59:03;;;;;;;;;;;;;;;7.23;57.71;98821.38;4427416;32;20685;-77
2021/12/10 08:01:30;;;;;;;;;;;;;;;7.34;57.28;98818.94;4433067;32;20004;-82
2021/12/10 08:03:58;;;;;;;;;;;;;;;7.35;56.48;98806.09;4432395;32;20061;-77
2021/12/10 08:06:26;;;;;;;;;;;;;;;7.49;56.46;98807.97;4414502;32;20001;-79
2021/12/10 08:08:54;;;;;;;;;;;;;;;7.66;55.86;98806.47;4426135;32;20032;-78
2021/12/10 08:11:21;;;;;;;;;;;;;;;7.46;56.16;98809.66;4411004;32;19985;-78
2021/12/10 08:13:48;;;;;;;;;;;;;;;7.53;55.64;98804.56;4431053;32;20005;-76
2021/12/10 08:16:16;;;;;;;;;;;;;;;7.20;56.92;98814.47;4425476;32;20049;-81
2021/12/10 08:18:45;;;;;;;;;;;;;;;7.32;56.42;98816.34;4426233;32;20007;-74
2021/12/10 08:21:16;;;;;;;;;;;;;;;7.46;56.51;98814.78;4418533;32;20026;-83
2021/12/10 08:23:43;;;;;;;;;;;;;;;7.37;56.78;98814.72;4418985;32;20023;-86
2021/12/10 08:26:12;;;;;;;;;;;;;;;7.25;56.99;98824.84;4405768;32;19985;-80
2021/12/10 08:28:41;;;;;;;;;;;;;;;7.43;56.10;98825.09;4421544;32;19982;-82
2021/12/10 08:31:09;;;;;;;;;;;;;;;7.41;56.06;98829.34;4405718;32;19997;-84
2021/12/10 08:33:36;;;;;;;;;;;;;;;7.52;56.07;98828.59;4433933;32;19997;-84
2021/12/10 08:36:05;;;;;;;;;;;;;;;7.45;56.00;98838.81;4398136;32;19978;-80
2021/12/10 08:38:32;;;;;;;;;;;;;;;7.35;55.72;98837.00;4406766;32;20000;-81
2021/12/10 08:41:01;;;;;;;;;;;;;;;7.45;55.83;98833.69;4412935;32;19981;-84
2021/12/10 08:43:29;;;;;;;;;;;;;;;7.41;55.85;98834.50;4426463;32;20007;-83
2021/12/10 08:45:57;;;;;;;;;;;;;;;7.52;55.75;98833.75;4412357;32;20007;-81
2021/12/10 08:48:25;;;;;;;;;;;;;;;7.42;55.58;98833.63;4410393;32;19993;-80
2021/12/10 08:50:52;;;;;;;;;;;;;;;7.52;55.56;98831.19;4409140;32;19986;-83
2021/12/10 08:53:19;;;;;;;;;;;;;;;7.37;56.40;98835.31;4417412;32;20019;-83
2021/12/10 08:55:48;;;;;;;;;;;;;;;7.35;56.16;98826.69;4433301;32;19974;-83
2021/12/10 08:58:15;;;;;;;;;;;;;;;7.41;57.16;98825.91;4420904;32;20031;-81
2021/12/10 09:00:44;;;;;;;;;;;;;;;7.36;57.21;98830.13;4410208;32;20365;-83
2021/12/10 09:03:12;;;;;;;;;;;;;;;7.61;56.27;98828.72;4409934;32;20009;-80
2021/12/10 09:05:39;;;;;;;;;;;;;;;7.55;56.93;98824.34;4417198;32;20031;-81
2021/12/10 09:08:06;;;;;;;;;;;;;;;7.58;56.20;98823.53;4429897;32;19989;-81
2021/12/10 09:10:35;;;;;;;;;;;;;;;7.88;55.01;98829.03;4426951;32;19982;-84
2021/12/10 09:13:03;;;;;;;;;;;;;;;7.71;55.50;98830.53;4400493;32;20376;-84
2021/12/10 09:15:32;;;;;;;;;;;;;;;7.59;55.43;98835.53;4428453;32;19981;-83
2021/12/10 09:17:59;;;;;;;;;;;;;;;7.69;55.34;98837.41;4412030;32;19997;-83
2021/12/10 09:20:38;;;;;;;;;;;;;;;7.69;55.72;98837.41;4427039;32;21043;-81
2021/12/10 09:23:07;;;;;;;;;;;;;;;7.83;55.12;98841.00;4409394;32;20300;-79
2021/12/10 09:25:34;;;;;;;;;;;;;;;7.67;55.55;98839.09;4424617;32;19974;-79
2021/12/10 09:28:01;;;;;;;;;;;;;;;7.62;55.81;98840.72;4424316;32;20317;-80
2021/12/10 09:30:34;;;;;;;;;;;;;;;7.77;55.70;98840.06;4425960;32;19986;-83
2021/12/10 09:33:02;;;;;;;;;;;;;;;7.85;55.81;98843.59;4404864;32;20017;-85
2021/12/10 09:35:30;;;;;;;;;;;;;;;7.61;56.37;98833.88;4436157;32;19985;-83
2021/12/10 09:37:57;;;;;;;;;;;;;;;7.50;57.09;98835.44;4402077;32;20005;-86
2021/12/10 09:40:26;;;;;;;;;;;;;;;7.67;56.48;98836.50;4426424;32;20046;-84
2021/12/10 09:42:54;;;;;;;;;;;;;;;7.72;56.08;98836.56;4398328;32;19993;-87
2021/12/10 09:45:22;;;;;;;;;;;;;;;7.81;55.89;98837.50;4430275;32;20015;-86
2021/12/10 09:47:49;;;;;;;;;;;;;;;7.92;55.63;98841.09;4401194;32;20001;-86
2021/12/10 09:50:17;;;;;;;;;;;;;;;8.01;55.95;98837.75;4423743;32;19986;-87
2021/12/10 09:52:45;;;;;;;;;;;;;;;7.95;55.94;98834.25;4424927;32;20428;-89
2021/12/10 09:55:14;;;;;;;;;;;;;;;8.06;55.68;98824.91;4414741;32;20013;-90
2021/12/10 09:57:41;;;;;;;;;;;;;;;7.68;56.23;98835.66;4403627;32;19986;-83
2021/12/10 10:00:29;;;;;;;;;;;;;;;7.46;57.37;98839.69;4406982;32;19989;-79
2021/12/10 10:02:57;;;;;;;;;;;;;;;7.70;56.17;98833.97;4376655;32;20319;-81
2021/12/10 10:05:27;;;;;;;;;;;;;;;7.97;55.94;98840.25;4420019;32;19974;-82
2021/12/10 10:08:05;;;;;;;;;;;;;;;8.04;55.67;98842.03;4417569;32;19990;-81
2021/12/10 10:10:32;;;;;;;;;;;;;;;8.29;53.56;98828.53;4418880;32;20034;-82
2021/12/10 10:13:03;;;;;;;;;;;;;;;8.15;53.80;98838.72;4388892;32;19986;-82
2021/12/10 10:15:31;;;;;;;;;;;;;;;8.21;53.74;98843.09;4402782;32;19996;-87
2021/12/10 10:18:00;;;;;;;;;;;;;;;7.84;54.19;98834.97;4423180;32;20100;-85
2021/12/10 10:20:28;;;;;;;;;;;;;;;7.97;53.54;98832.53;4439185;32;20003;-86
2021/12/10 10:22:55;;;;;;;;;;;;;;;8.19;53.33;98824.16;4416226;32;20662;-86
2021/12/10 10:25:22;;;;;;;;;;;;;;;8.15;52.12;98832.72;4428546;32;19981;-87
2021/12/10 10:27:49;;;;;;;;;;;;;;;8.14;51.78;98820.69;4399011;32;20038;-87
2021/12/10 10:30:25;;;;;;;;;;;;;;;8.04;52.52;98819.75;4433351;32;20013;-86
2021/12/10 10:32:52;;;;;;;;;;;;;;;7.80;52.48;98819.47;4416444;32;20027;-85
2021/12/10 10:35:22;;;;;;;;;;;;;;;8.10;52.13;98803.44;4411250;32;19985;-87
2021/12/10 10:37:50;;;;;;;;;;;;;;;7.95;52.78;98793.03;4412539;32;20013;-87
2021/12/10 10:40:21;;;;;;;;;;;;;;;8.11;52.56;98794.88;4422747;32;20354;-85
2021/12/10 10:42:49;;;;;;;;;;;;;;;8.25;52.52;98790.69;4416206;32;19992;-87
2021/12/10 10:45:20;;;;;;;;;;;;;;;8.33;51.96;98785.62;4423672;32;20002;-88
2021/12/10 10:47:47;;;;;;;;;;;;;;;8.11;51.94;98789.72;4406567;32;20618;-88
2021/12/10 10:50:31;;;;;;;;;;;;;;;8.18;52.35;98780.34;4428444;32;19998;-87
2021/12/10 10:53:00;;;;;;;;;;;;;;;7.74;53.98;98778.19;4425840;32;19985;-84
2021/12/10 10:55:31;;;;;;;;;;;;;;;7.73;55.03;98772.19;4428986;32;19965;-87
2021/12/10 10:58:04;;;;;;;;;;;;;;;7.23;57.12;98760.47;4425877;32;19993;-86
2021/12/10 11:00:34;;;;;;;;;;;;;;;7.67;56.16;98772.13;4428626;32;19993;-88
2021/12/10 11:03:09;;;;;;;;;;;;;;;7.85;55.13;98762.00;4404857;32;20000;-86
2021/12/10 11:05:43;;;;;;;;;;;;;;;7.67;56.40;98766.97;4421798;32;20023;-87
2021/12/10 11:08:10;;;;;;;;;;;;;;;7.16;57.63;98768.13;4411108;32;20721;-87
2021/12/10 11:10:39;;;;;;;;;;;;;;;7.11;58.34;98762.03;4426400;32;19989;-87
2021/12/10 11:13:17;;;;;;;;;;;;;;;7.28;57.74;98755.41;4426399;32;20030;-86
2021/12/10 11:15:55;;;;;;;;;;;;;;;6.98;58.81;98754.16;4426183;32;20262;-87
2021/12/10 11:18:25;;;;;;;;;;;;;;;6.99;58.97;98755.91;4428742;32;20024;-86
2021/12/10 11:20:52;;;;;;;;;;;;;;;7.46;57.00;98753.00;4440889;32;19985;-86
2021/12/10 11:23:23;;;;;;;;;;;;;;;7.37;57.96;98752.94;4426752;32;20036;-86
2021/12/10 11:25:53;;;;;;;;;;;;;;;7.55;57.13;98741.09;4416402;32;19986;-85
2021/12/10 11:28:26;;;;;;;;;;;;;;;7.83;55.81;98748.25;4420199;32;20383;-87
2021/12/10 11:31:02;;;;;;;;;;;;;;;7.30;57.74;98752.81;4420296;32;19996;-86
2021/12/10 11:33:42;;;;;;;;;;;;;;;7.59;57.50;98751.44;4407411;32;19993;-93
2021/12/10 11:36:14;;;;;;;;;;;;;;;7.49;57.56;98748.75;4407846;32;19986;-82
2021/12/10 11:38:41;;;;;;;;;;;;;;;7.70;56.91;98746.41;4418583;32;19990;-84
2021/12/10 11:41:17;;;;;;;;;;;;;;;7.62;56.88;98748.03;4420404;32;20343;-81
2021/12/10 11:48:47;;;;;;;;;;;;;;;7.52;57.60;98735.91;4416631;32;19989;-80
2021/12/10 11:51:35;;;;;;;;;;;;;;;7.59;57.05;98742.84;4413021;32;19988;-81
2021/12/10 11:54:05;;;;;;;;;;;;;;;7.81;56.51;98744.78;4410848;32;20008;-82
2021/12/10 11:56:32;;;;;;;;;;;;;;;7.72;56.95;98744.69;4432554;32;19993;-81
2021/12/10 11:59:13;;;;;;;;;;;;;;;7.73;56.85;98741.28;4432457;32;20912;-81
2021/12/10 12:01:48;;;;;;;;;;;;;;;7.58;56.90;98741.13;4426104;32;20026;-81
2021/12/10 12:04:30;;;;;;;;;;;;;;;7.60;56.84;98734.28;4411926;32;19994;-80
2021/12/10 12:07:14;;;;;;;;;;;;;;;7.14;58.10;98733.75;4414042;32;19996;-83
2021/12/10 12:09:43;;;;;;;;;;;;;;;7.13;57.89;98721.75;4412588;32;19985;-81
2021/12/10 12:12:12;;;;;;;;;;;;;;;7.25;58.24;98727.06;4416500;32;19998;-77
2021/12/10 12:14:49;;;;;;;;;;;;;;;6.87;59.24;98735.16;4426226;32;19997;-80
2021/12/10 12:17:31;;;;;;;;;;;;;;;7.32;57.45;98744.28;4407343;32;20051;-81
2021/12/10 12:19:58;;;;;;;;;;;;;;;7.29;57.87;98744.25;4431584;32;20948;-82
2021/12/10 12:24:56;;;;;;;;;;;;;;;7.22;58.23;98740.75;4426015;32;20048;-81
2021/12/10 12:25:30;;;;;;;;;;;;;;;7.01;58.67;98740.47;4426133;32;19981;-80
2021/12/10 12:28:11;;;;;;;;;;;;;;;7.21;58.52;98735.56;4411215;32;20004;-82
2021/12/10 12:31:10;;;;;;;;;;;;;;;6.98;59.03;98732.72;4423202;32;20009;-79
2021/12/10 12:33:49;;;;;;;;;;;;;;;7.06;58.49;98719.97;4424099;32;20018;-84
2021/12/10 12:36:17;;;;;;;;;;;;;;;6.75;59.50;98719.56;4416863;32;19994;-81
2021/12/10 12:38:45;;;;;;;;;;;;;;;7.35;57.99;98723.72;4425448;32;19993;-86
2021/12/10 12:41:32;;;;;;;;;;;;;;;7.01;58.11;98722.47;4416610;32;20002;-81
2021/12/10 12:44:19;;;;;;;;;;;;;;;7.25;57.67;98710.75;4419012;32;20557;-84
2021/12/10 12:47:06;;;;;;;;;;;;;;;6.98;58.59;98705.28;4419559;32;20069;-84
2021/12/10 12:49:49;;;;;;;;;;;;;;;6.95;58.43;98707.81;4431854;32;19986;-85
2021/12/10 12:52:19;;;;;;;;;;;;;;;6.98;58.66;98707.84;4422197;32;20515;-82
2021/12/10 12:55:05;;;;;;;;;;;;;;;7.06;58.24;98699.38;4411415;32;20017;-82
2021/12/10 12:57:55;;;;;;;;;;;;;;;7.35;57.76;98703.13;4424801;32;20446;-83
2021/12/10 13:00:54;;;;;;;;;;;;;;;7.15;58.29;98702.06;4425025;32;20787;-83
2021/12/10 13:03:29;;;;;;;;;;;;;;;7.10;58.44;98689.13;4423793;32;20024;-83
2021/12/10 13:06:16;;;;;;;;;;;;;;;6.59;60.23;98694.50;4421064;32;20028;-81
2021/12/10 13:09:05;;;;;;;;;;;;;;;6.54;60.81;98702.16;4419851;32;20007;-80
2021/12/10 13:11:51;;;;;;;;;;;;;;;7.00;59.02;98697.59;4424770;32;19981;-83
2021/12/10 13:14:21;;;;;;;;;;;;;;;7.27;57.48;98694.44;4422947;32;19994;-88
2021/12/10 13:16:50;;;;;;;;;;;;;;;7.41;57.24;98692.91;4409620;32;19985;-80
2021/12/10 13:19:20;;;;;;;;;;;;;;;7.17;57.84;98688.34;4409757;32;20596;-78
2021/12/10 13:21:58;;;;;;;;;;;;;;;7.30;57.79;98683.31;4422781;32;19999;-80
2021/12/10 13:24:25;;;;;;;;;;;;;;;7.74;56.15;98681.19;4417275;32;20578;-80
2021/12/10 13:26:52;;;;;;;;;;;;;;;7.66;56.61;98682.84;4421942;32;20377;-80